LFRV/VNE METAR and TAF weather

Enter ICAO airport designator
Station Type Date Time Source
LFRV METAR 2020/07/12 04:00 UTC NOAA

LFRV 120400Z AUTO 04010KT CAVOK 10/07 Q1025


Station Type Date Time Source
LFRV Decoded METAR 2020/07/12 04:00 UTC NOAA

Station name not available
Jul 12, 2020 - 12:00 AM EDT / 2020.07.12 0400 UTC
Wind: from the NE (040 degrees) at 12 MPH (10 KT):0
Visibility: greater than 7 mile(s):0
Temperature: 50 F (10 C)
Dew Point: 44 F (7 C)
Relative Humidity: 81%
Pressure (altimeter): 30.27 in. Hg (1025 hPa)
ob: LFRV 120400Z AUTO 04010KT CAVOK 10/07 Q1025
cycle: 4

Station Type Date Time Source
LFRV TAF UTC NOAA

Error!

Example: see airport list